sensor_id;sensor_type;location;lat;lon;timestamp;P1;durP1;ratioP1;P2;durP2;ratioP2
549;SDS011;20066;48.764;9.176;2022-11-21T00:01:11;3.65;;;1.00;;
549;SDS011;20066;48.764;9.176;2022-11-21T00:03:46;1.00;;;0.70;;
549;SDS011;20066;48.764;9.176;2022-11-21T00:06:14;3.28;;;0.90;;
549;SDS011;20066;48.764;9.176;2022-11-21T00:08:41;1.40;;;0.68;;
549;SDS011;20066;48.764;9.176;2022-11-21T00:11:09;1.65;;;0.77;;
549;SDS011;20066;48.764;9.176;2022-11-21T00:13:37;1.02;;;0.70;;
549;SDS011;20066;48.764;9.176;2022-11-21T00:16:06;2.28;;;0.63;;
549;SDS011;20066;48.764;9.176;2022-11-21T00:18:35;0.90;;;0.50;;
549;SDS011;20066;48.764;9.176;2022-11-21T00:21:05;1.48;;;0.60;;
549;SDS011;20066;48.764;9.176;2022-11-21T00:23:33;1.40;;;0.70;;
549;SDS011;20066;48.764;9.176;2022-11-21T00:26:04;1.30;;;0.50;;
549;SDS011;20066;48.764;9.176;2022-11-21T00:28:32;0.93;;;0.52;;
549;SDS011;20066;48.764;9.176;2022-11-21T00:31:01;2.38;;;0.80;;
549;SDS011;20066;48.764;9.176;2022-11-21T00:33:29;1.20;;;0.68;;
549;SDS011;20066;48.764;9.176;2022-11-21T00:35:57;1.40;;;0.82;;
549;SDS011;20066;48.764;9.176;2022-11-21T00:38:27;0.80;;;0.50;;
549;SDS011;20066;48.764;9.176;2022-11-21T00:40:54;0.90;;;0.50;;
549;SDS011;20066;48.764;9.176;2022-11-21T00:43:22;3.30;;;0.57;;
549;SDS011;20066;48.764;9.176;2022-11-21T00:45:51;1.20;;;0.60;;
549;SDS011;20066;48.764;9.176;2022-11-21T00:48:31;1.38;;;0.65;;
549;SDS011;20066;48.764;9.176;2022-11-21T00:50:59;1.98;;;0.70;;
549;SDS011;20066;48.764;9.176;2022-11-21T00:53:28;0.88;;;0.47;;
549;SDS011;20066;48.764;9.176;2022-11-21T00:55:56;2.03;;;0.68;;
549;SDS011;20066;48.764;9.176;2022-11-21T00:58:24;1.60;;;0.70;;
549;SDS011;20066;48.764;9.176;2022-11-21T01:00:52;1.20;;;0.70;;
549;SDS011;20066;48.764;9.176;2022-11-21T01:03:28;3.03;;;1.25;;
549;SDS011;20066;48.764;9.176;2022-11-21T01:05:59;5.53;;;1.73;;
549;SDS011;20066;48.764;9.176;2022-11-21T01:08:29;2.75;;;1.20;;
549;SDS011;20066;48.764;9.176;2022-11-21T01:11:00;3.00;;;1.20;;
549;SDS011;20066;48.764;9.176;2022-11-21T01:13:29;4.30;;;1.50;;
549;SDS011;20066;48.764;9.176;2022-11-21T01:16:00;5.20;;;1.75;;
549;SDS011;20066;48.764;9.176;2022-11-21T01:18:29;5.32;;;1.77;;
549;SDS011;20066;48.764;9.176;2022-11-21T01:20:58;8.02;;;2.30;;
549;SDS011;20066;48.764;9.176;2022-11-21T01:23:26;1.40;;;0.85;;
549;SDS011;20066;48.764;9.176;2022-11-21T01:25:59;4.10;;;1.17;;
549;SDS011;20066;48.764;9.176;2022-11-21T01:28:27;1.05;;;0.70;;
549;SDS011;20066;48.764;9.176;2022-11-21T01:30:57;1.70;;;1.13;;
549;SDS011;20066;48.764;9.176;2022-11-21T01:33:29;3.08;;;1.35;;
549;SDS011;20066;48.764;9.176;2022-11-21T01:36:04;6.68;;;1.77;;
549;SDS011;20066;48.764;9.176;2022-11-21T01:38:32;3.83;;;1.00;;
549;SDS011;20066;48.764;9.176;2022-11-21T01:41:01;3.08;;;1.17;;
549;SDS011;20066;48.764;9.176;2022-11-21T01:43:29;3.20;;;1.30;;
549;SDS011;20066;48.764;9.176;2022-11-21T01:45:57;3.15;;;1.20;;
549;SDS011;20066;48.764;9.176;2022-11-21T01:48:28;9.05;;;3.33;;
549;SDS011;20066;48.764;9.176;2022-11-21T01:51:02;3.08;;;0.80;;
549;SDS011;20066;48.764;9.176;2022-11-21T01:53:35;3.35;;;1.00;;
549;SDS011;20066;48.764;9.176;2022-11-21T01:56:06;10.52;;;1.20;;
549;SDS011;20066;48.764;9.176;2022-11-21T01:58:35;3.05;;;1.35;;
549;SDS011;20066;48.764;9.176;2022-11-21T02:01:05;4.35;;;1.15;;
549;SDS011;20066;48.764;9.176;2022-11-21T02:03:33;1.77;;;0.90;;
549;SDS011;20066;48.764;9.176;2022-11-21T02:06:04;5.45;;;1.00;;
549;SDS011;20066;48.764;9.176;2022-11-21T02:08:33;3.97;;;1.35;;
549;SDS011;20066;48.764;9.176;2022-11-21T02:11:04;2.00;;;0.80;;
549;SDS011;20066;48.764;9.176;2022-11-21T02:13:38;4.57;;;1.10;;
549;SDS011;20066;48.764;9.176;2022-11-21T02:16:06;2.25;;;1.00;;
549;SDS011;20066;48.764;9.176;2022-11-21T02:18:34;3.42;;;0.93;;
549;SDS011;20066;48.764;9.176;2022-11-21T02:21:04;3.08;;;1.20;;
549;SDS011;20066;48.764;9.176;2022-11-21T02:23:40;7.90;;;1.65;;
549;SDS011;20066;48.764;9.176;2022-11-21T02:26:16;2.45;;;1.10;;
549;SDS011;20066;48.764;9.176;2022-11-21T02:28:44;1.23;;;0.70;;
549;SDS011;20066;48.764;9.176;2022-11-21T02:31:12;1.73;;;0.73;;
549;SDS011;20066;48.764;9.176;2022-11-21T02:33:40;1.17;;;0.80;;
549;SDS011;20066;48.764;9.176;2022-11-21T02:36:28;7.72;;;0.95;;
549;SDS011;20066;48.764;9.176;2022-11-21T02:39:05;1.30;;;0.70;;
549;SDS011;20066;48.764;9.176;2022-11-21T02:41:36;1.55;;;0.70;;
549;SDS011;20066;48.764;9.176;2022-11-21T02:44:08;2.15;;;0.93;;
549;SDS011;20066;48.764;9.176;2022-11-21T02:46:45;1.77;;;0.90;;
549;SDS011;20066;48.764;9.176;2022-11-21T02:49:15;2.67;;;0.90;;
549;SDS011;20066;48.764;9.176;2022-11-21T02:51:48;3.80;;;0.90;;
549;SDS011;20066;48.764;9.176;2022-11-21T02:54:16;6.10;;;1.30;;
549;SDS011;20066;48.764;9.176;2022-11-21T02:56:45;1.58;;;0.90;;
549;SDS011;20066;48.764;9.176;2022-11-21T02:59:12;1.58;;;0.80;;
549;SDS011;20066;48.764;9.176;2022-11-21T03:01:40;1.98;;;0.90;;
549;SDS011;20066;48.764;9.176;2022-11-21T03:04:08;2.70;;;0.85;;
549;SDS011;20066;48.764;9.176;2022-11-21T03:06:35;1.10;;;0.60;;
549;SDS011;20066;48.764;9.176;2022-11-21T03:09:03;1.67;;;0.80;;
549;SDS011;20066;48.764;9.176;2022-11-21T03:11:31;1.88;;;0.98;;
549;SDS011;20066;48.764;9.176;2022-11-21T03:14:00;1.52;;;0.80;;
549;SDS011;20066;48.764;9.176;2022-11-21T03:16:27;1.38;;;0.70;;
549;SDS011;20066;48.764;9.176;2022-11-21T03:18:55;0.98;;;0.70;;
549;SDS011;20066;48.764;9.176;2022-11-21T03:21:23;1.73;;;0.80;;
549;SDS011;20066;48.764;9.176;2022-11-21T03:23:50;1.30;;;0.65;;
549;SDS011;20066;48.764;9.176;2022-11-21T03:26:18;1.52;;;0.80;;
549;SDS011;20066;48.764;9.176;2022-11-21T03:28:46;2.25;;;0.90;;
549;SDS011;20066;48.764;9.176;2022-11-21T03:31:15;1.15;;;0.75;;
549;SDS011;20066;48.764;9.176;2022-11-21T03:33:42;1.08;;;0.70;;
549;SDS011;20066;48.764;9.176;2022-11-21T03:36:10;0.98;;;0.60;;
549;SDS011;20066;48.764;9.176;2022-11-21T03:38:38;1.80;;;0.70;;
549;SDS011;20066;48.764;9.176;2022-11-21T03:41:06;2.47;;;0.88;;
549;SDS011;20066;48.764;9.176;2022-11-21T03:43:53;5.05;;;1.65;;
549;SDS011;20066;48.764;9.176;2022-11-21T03:46:22;3.75;;;1.45;;
549;SDS011;20066;48.764;9.176;2022-11-21T03:48:50;4.25;;;1.65;;
549;SDS011;20066;48.764;9.176;2022-11-21T03:51:18;5.13;;;1.80;;
549;SDS011;20066;48.764;9.176;2022-11-21T03:53:46;4.00;;;1.50;;
549;SDS011;20066;48.764;9.176;2022-11-21T03:56:14;5.75;;;2.03;;
549;SDS011;20066;48.764;9.176;2022-11-21T03:58:42;3.97;;;1.55;;
549;SDS011;20066;48.764;9.176;2022-11-21T04:01:11;5.53;;;1.10;;
549;SDS011;20066;48.764;9.176;2022-11-21T04:03:41;4.00;;;1.35;;
549;SDS011;20066;48.764;9.176;2022-11-21T04:06:09;3.05;;;1.10;;
549;SDS011;20066;48.764;9.176;2022-11-21T04:08:38;1.40;;;1.00;;
549;SDS011;20066;48.764;9.176;2022-11-21T04:11:06;2.70;;;0.60;;
549;SDS011;20066;48.764;9.176;2022-11-21T04:13:34;1.45;;;0.75;;
549;SDS011;20066;48.764;9.176;2022-11-21T04:16:02;2.80;;;0.80;;
549;SDS011;20066;48.764;9.176;2022-11-21T04:18:30;2.38;;;1.00;;
549;SDS011;20066;48.764;9.176;2022-11-21T04:21:00;1.58;;;1.10;;
549;SDS011;20066;48.764;9.176;2022-11-21T04:23:28;1.90;;;0.77;;
549;SDS011;20066;48.764;9.176;2022-11-21T04:25:56;1.25;;;0.70;;
549;SDS011;20066;48.764;9.176;2022-11-21T04:28:24;1.95;;;0.70;;
549;SDS011;20066;48.764;9.176;2022-11-21T04:30:52;1.40;;;0.88;;
549;SDS011;20066;48.764;9.176;2022-11-21T04:33:20;1.40;;;0.70;;
549;SDS011;20066;48.764;9.176;2022-11-21T04:35:48;2.13;;;1.00;;
549;SDS011;20066;48.764;9.176;2022-11-21T04:38:17;3.15;;;0.90;;
549;SDS011;20066;48.764;9.176;2022-11-21T04:40:45;1.13;;;0.73;;
549;SDS011;20066;48.764;9.176;2022-11-21T04:43:12;2.10;;;0.75;;
549;SDS011;20066;48.764;9.176;2022-11-21T04:45:40;3.60;;;0.80;;
549;SDS011;20066;48.764;9.176;2022-11-21T04:48:09;2.80;;;0.90;;
549;SDS011;20066;48.764;9.176;2022-11-21T04:50:37;1.77;;;0.85;;
549;SDS011;20066;48.764;9.176;2022-11-21T04:53:05;5.00;;;0.80;;
549;SDS011;20066;48.764;9.176;2022-11-21T04:55:34;7.82;;;0.80;;
549;SDS011;20066;48.764;9.176;2022-11-21T04:58:01;3.38;;;0.80;;
549;SDS011;20066;48.764;9.176;2022-11-21T05:00:29;2.38;;;0.70;;
549;SDS011;20066;48.764;9.176;2022-11-21T05:03:00;2.20;;;0.70;;
549;SDS011;20066;48.764;9.176;2022-11-21T05:05:29;1.52;;;0.80;;
549;SDS011;20066;48.764;9.176;2022-11-21T05:07:57;4.20;;;0.90;;
549;SDS011;20066;48.764;9.176;2022-11-21T05:10:24;2.28;;;0.65;;
549;SDS011;20066;48.764;9.176;2022-11-21T05:12:57;2.17;;;0.90;;
549;SDS011;20066;48.764;9.176;2022-11-21T05:15:43;1.80;;;0.88;;
549;SDS011;20066;48.764;9.176;2022-11-21T05:18:11;4.82;;;0.90;;
549;SDS011;20066;48.764;9.176;2022-11-21T05:20:39;1.40;;;0.80;;
549;SDS011;20066;48.764;9.176;2022-11-21T05:23:07;1.67;;;0.90;;
549;SDS011;20066;48.764;9.176;2022-11-21T05:25:35;1.88;;;1.00;;
549;SDS011;20066;48.764;9.176;2022-11-21T05:28:04;2.85;;;0.82;;
549;SDS011;20066;48.764;9.176;2022-11-21T05:30:32;2.92;;;1.00;;
549;SDS011;20066;48.764;9.176;2022-11-21T05:32:59;2.53;;;1.00;;
549;SDS011;20066;48.764;9.176;2022-11-21T05:35:27;13.30;;;4.30;;
549;SDS011;20066;48.764;9.176;2022-11-21T05:37:55;15.65;;;6.90;;
549;SDS011;20066;48.764;9.176;2022-11-21T05:40:23;3.20;;;2.10;;
549;SDS011;20066;48.764;9.176;2022-11-21T05:42:51;2.55;;;1.40;;
549;SDS011;20066;48.764;9.176;2022-11-21T05:45:38;2.80;;;1.25;;
549;SDS011;20066;48.764;9.176;2022-11-21T05:48:05;4.15;;;1.15;;
549;SDS011;20066;48.764;9.176;2022-11-21T05:50:34;3.25;;;1.50;;
549;SDS011;20066;48.764;9.176;2022-11-21T05:53:02;1.98;;;1.00;;
549;SDS011;20066;48.764;9.176;2022-11-21T05:55:32;5.25;;;1.52;;
549;SDS011;20066;48.764;9.176;2022-11-21T05:58:00;2.88;;;1.20;;
549;SDS011;20066;48.764;9.176;2022-11-21T06:00:28;3.88;;;1.75;;
549;SDS011;20066;48.764;9.176;2022-11-21T06:02:57;6.28;;;2.15;;
549;SDS011;20066;48.764;9.176;2022-11-21T06:05:43;4.68;;;1.63;;
549;SDS011;20066;48.764;9.176;2022-11-21T06:08:10;4.10;;;1.60;;
549;SDS011;20066;48.764;9.176;2022-11-21T06:10:38;5.20;;;1.10;;
549;SDS011;20066;48.764;9.176;2022-11-21T06:13:06;9.10;;;1.80;;
549;SDS011;20066;48.764;9.176;2022-11-21T06:15:50;4.43;;;1.45;;
549;SDS011;20066;48.764;9.176;2022-11-21T06:18:23;6.93;;;1.55;;
549;SDS011;20066;48.764;9.176;2022-11-21T06:20:51;6.90;;;2.50;;
549;SDS011;20066;48.764;9.176;2022-11-21T06:23:19;3.95;;;1.65;;
549;SDS011;20066;48.764;9.176;2022-11-21T06:25:47;5.40;;;1.55;;
549;SDS011;20066;48.764;9.176;2022-11-21T06:28:21;5.95;;;2.15;;
549;SDS011;20066;48.764;9.176;2022-11-21T06:30:49;6.22;;;1.92;;
549;SDS011;20066;48.764;9.176;2022-11-21T06:33:17;7.15;;;1.65;;
549;SDS011;20066;48.764;9.176;2022-11-21T06:35:47;3.17;;;1.63;;
549;SDS011;20066;48.764;9.176;2022-11-21T06:38:14;3.30;;;1.60;;
549;SDS011;20066;48.764;9.176;2022-11-21T06:40:44;3.95;;;1.95;;
549;SDS011;20066;48.764;9.176;2022-11-21T06:43:11;12.20;;;3.17;;
549;SDS011;20066;48.764;9.176;2022-11-21T06:45:39;6.55;;;2.58;;
549;SDS011;20066;48.764;9.176;2022-11-21T06:48:07;8.63;;;3.00;;
549;SDS011;20066;48.764;9.176;2022-11-21T06:50:35;9.27;;;2.78;;
549;SDS011;20066;48.764;9.176;2022-11-21T06:53:05;11.55;;;3.55;;
549;SDS011;20066;48.764;9.176;2022-11-21T06:55:33;6.55;;;2.70;;
549;SDS011;20066;48.764;9.176;2022-11-21T06:58:00;7.60;;;2.85;;
549;SDS011;20066;48.764;9.176;2022-11-21T07:00:28;6.32;;;2.75;;
549;SDS011;20066;48.764;9.176;2022-11-21T07:02:58;8.73;;;2.55;;
549;SDS011;20066;48.764;9.176;2022-11-21T07:05:28;7.15;;;3.05;;
549;SDS011;20066;48.764;9.176;2022-11-21T07:07:56;6.85;;;2.97;;
549;SDS011;20066;48.764;9.176;2022-11-21T07:10:27;8.98;;;3.90;;
549;SDS011;20066;48.764;9.176;2022-11-21T07:12:56;4.00;;;1.58;;
549;SDS011;20066;48.764;9.176;2022-11-21T07:15:41;4.03;;;1.77;;
549;SDS011;20066;48.764;9.176;2022-11-21T07:18:09;4.20;;;1.90;;
549;SDS011;20066;48.764;9.176;2022-11-21T07:20:37;2.70;;;1.40;;
549;SDS011;20066;48.764;9.176;2022-11-21T07:23:05;2.42;;;1.52;;
549;SDS011;20066;48.764;9.176;2022-11-21T07:25:34;2.85;;;1.63;;
549;SDS011;20066;48.764;9.176;2022-11-21T07:28:02;3.17;;;1.90;;
549;SDS011;20066;48.764;9.176;2022-11-21T07:30:30;4.65;;;1.83;;
549;SDS011;20066;48.764;9.176;2022-11-21T07:32:59;5.55;;;1.88;;
549;SDS011;20066;48.764;9.176;2022-11-21T07:35:28;3.65;;;1.60;;
549;SDS011;20066;48.764;9.176;2022-11-21T07:37:55;8.60;;;1.70;;
549;SDS011;20066;48.764;9.176;2022-11-21T07:40:23;4.03;;;2.00;;
549;SDS011;20066;48.764;9.176;2022-11-21T07:42:53;3.10;;;1.58;;
549;SDS011;20066;48.764;9.176;2022-11-21T07:45:21;6.78;;;1.95;;
549;SDS011;20066;48.764;9.176;2022-11-21T07:47:55;4.10;;;1.60;;
549;SDS011;20066;48.764;9.176;2022-11-21T07:50:24;7.30;;;2.08;;
549;SDS011;20066;48.764;9.176;2022-11-21T07:52:55;2.70;;;1.80;;
549;SDS011;20066;48.764;9.176;2022-11-21T07:55:23;5.32;;;1.67;;
549;SDS011;20066;48.764;9.176;2022-11-21T07:57:59;5.68;;;1.80;;
549;SDS011;20066;48.764;9.176;2022-11-21T08:00:29;6.32;;;1.90;;
549;SDS011;20066;48.764;9.176;2022-11-21T08:02:57;4.95;;;1.80;;
549;SDS011;20066;48.764;9.176;2022-11-21T08:05:25;7.20;;;1.83;;
549;SDS011;20066;48.764;9.176;2022-11-21T08:07:53;3.47;;;1.38;;
549;SDS011;20066;48.764;9.176;2022-11-21T08:10:20;6.22;;;2.38;;
549;SDS011;20066;48.764;9.176;2022-11-21T08:12:48;3.28;;;1.75;;
549;SDS011;20066;48.764;9.176;2022-11-21T08:15:17;10.82;;;2.03;;
549;SDS011;20066;48.764;9.176;2022-11-21T08:17:45;4.13;;;1.90;;
549;SDS011;20066;48.764;9.176;2022-11-21T08:20:13;2.70;;;1.65;;
549;SDS011;20066;48.764;9.176;2022-11-21T08:22:41;4.50;;;2.00;;
549;SDS011;20066;48.764;9.176;2022-11-21T08:25:09;5.43;;;1.95;;
549;SDS011;20066;48.764;9.176;2022-11-21T08:27:37;3.78;;;1.77;;
549;SDS011;20066;48.764;9.176;2022-11-21T08:30:06;9.75;;;1.90;;
549;SDS011;20066;48.764;9.176;2022-11-21T08:32:36;6.30;;;1.85;;
549;SDS011;20066;48.764;9.176;2022-11-21T08:35:05;7.70;;;2.08;;
549;SDS011;20066;48.764;9.176;2022-11-21T08:37:33;4.03;;;1.88;;
549;SDS011;20066;48.764;9.176;2022-11-21T08:40:01;13.38;;;2.22;;
549;SDS011;20066;48.764;9.176;2022-11-21T08:42:28;4.40;;;2.15;;
549;SDS011;20066;48.764;9.176;2022-11-21T08:44:56;2.88;;;1.63;;
549;SDS011;20066;48.764;9.176;2022-11-21T08:47:24;6.68;;;2.45;;
549;SDS011;20066;48.764;9.176;2022-11-21T08:49:53;4.07;;;1.70;;
549;SDS011;20066;48.764;9.176;2022-11-21T08:52:21;2.53;;;1.60;;
549;SDS011;20066;48.764;9.176;2022-11-21T08:54:49;5.60;;;1.88;;
549;SDS011;20066;48.764;9.176;2022-11-21T08:57:17;4.13;;;1.67;;
549;SDS011;20066;48.764;9.176;2022-11-21T08:59:44;4.25;;;1.50;;
549;SDS011;20066;48.764;9.176;2022-11-21T09:02:12;9.75;;;1.88;;
549;SDS011;20066;48.764;9.176;2022-11-21T09:04:40;7.97;;;1.40;;
549;SDS011;20066;48.764;9.176;2022-11-21T09:07:09;4.45;;;1.45;;
549;SDS011;20066;48.764;9.176;2022-11-21T09:09:37;5.05;;;1.30;;
549;SDS011;20066;48.764;9.176;2022-11-21T09:12:05;2.67;;;1.50;;
549;SDS011;20066;48.764;9.176;2022-11-21T09:14:33;5.78;;;1.95;;
549;SDS011;20066;48.764;9.176;2022-11-21T09:17:18;4.78;;;1.63;;
549;SDS011;20066;48.764;9.176;2022-11-21T09:20:03;5.13;;;1.50;;
549;SDS011;20066;48.764;9.176;2022-11-21T09:22:33;5.70;;;2.20;;
549;SDS011;20066;48.764;9.176;2022-11-21T09:25:01;6.40;;;2.53;;
549;SDS011;20066;48.764;9.176;2022-11-21T09:27:29;6.50;;;2.45;;
549;SDS011;20066;48.764;9.176;2022-11-21T09:29:58;9.55;;;2.97;;
549;SDS011;20066;48.764;9.176;2022-11-21T09:32:25;12.68;;;2.90;;
549;SDS011;20066;48.764;9.176;2022-11-21T09:34:53;8.82;;;2.83;;
549;SDS011;20066;48.764;9.176;2022-11-21T09:37:21;11.00;;;2.80;;
549;SDS011;20066;48.764;9.176;2022-11-21T09:39:50;12.15;;;2.67;;
549;SDS011;20066;48.764;9.176;2022-11-21T09:42:33;7.13;;;2.60;;
549;SDS011;20066;48.764;9.176;2022-11-21T09:45:18;8.23;;;1.63;;
549;SDS011;20066;48.764;9.176;2022-11-21T09:47:50;4.55;;;1.58;;
549;SDS011;20066;48.764;9.176;2022-11-21T09:50:24;4.97;;;1.48;;
549;SDS011;20066;48.764;9.176;2022-11-21T09:52:57;6.72;;;2.40;;
549;SDS011;20066;48.764;9.176;2022-11-21T09:55:34;6.07;;;2.55;;
549;SDS011;20066;48.764;9.176;2022-11-21T09:58:10;14.13;;;2.22;;
549;SDS011;20066;48.764;9.176;2022-11-21T10:00:49;4.22;;;1.40;;
549;SDS011;20066;48.764;9.176;2022-11-21T10:03:18;6.30;;;1.40;;
549;SDS011;20066;48.764;9.176;2022-11-21T10:05:48;3.67;;;1.45;;
549;SDS011;20066;48.764;9.176;2022-11-21T10:08:22;6.00;;;2.27;;
549;SDS011;20066;48.764;9.176;2022-11-21T10:10:59;4.97;;;1.80;;
549;SDS011;20066;48.764;9.176;2022-11-21T10:13:56;4.30;;;1.80;;
549;SDS011;20066;48.764;9.176;2022-11-21T10:16:37;5.88;;;2.25;;
549;SDS011;20066;48.764;9.176;2022-11-21T10:22:17;6.65;;;1.88;;
549;SDS011;20066;48.764;9.176;2022-11-21T10:24:58;4.75;;;1.40;;
549;SDS011;20066;48.764;9.176;2022-11-21T10:27:40;6.72;;;2.00;;
549;SDS011;20066;48.764;9.176;2022-11-21T10:30:14;8.68;;;2.95;;
549;SDS011;20066;48.764;9.176;2022-11-21T10:32:43;5.22;;;1.55;;
549;SDS011;20066;48.764;9.176;2022-11-21T10:35:14;6.20;;;1.90;;
549;SDS011;20066;48.764;9.176;2022-11-21T10:37:46;6.97;;;2.60;;
549;SDS011;20066;48.764;9.176;2022-11-21T10:40:22;9.07;;;3.05;;
549;SDS011;20066;48.764;9.176;2022-11-21T10:43:00;8.70;;;2.03;;
549;SDS011;20066;48.764;9.176;2022-11-21T10:45:52;4.67;;;1.33;;
549;SDS011;20066;48.764;9.176;2022-11-21T10:48:19;4.33;;;1.87;;
549;SDS011;20066;48.764;9.176;2022-11-21T10:50:50;5.37;;;1.13;;
549;SDS011;20066;48.764;9.176;2022-11-21T10:53:30;9.60;;;2.13;;
549;SDS011;20066;48.764;9.176;2022-11-21T10:56:16;9.10;;;2.50;;
549;SDS011;20066;48.764;9.176;2022-11-21T10:58:48;9.17;;;2.63;;
549;SDS011;20066;48.764;9.176;2022-11-21T11:01:20;8.87;;;2.60;;
549;SDS011;20066;48.764;9.176;2022-11-21T11:04:06;5.10;;;2.17;;
549;SDS011;20066;48.764;9.176;2022-11-21T11:07:12;9.53;;;2.07;;
549;SDS011;20066;48.764;9.176;2022-11-21T11:09:48;9.38;;;2.00;;
549;SDS011;20066;48.764;9.176;2022-11-21T11:12:21;7.97;;;1.50;;
549;SDS011;20066;48.764;9.176;2022-11-21T11:15:21;7.90;;;3.25;;
549;SDS011;20066;48.764;9.176;2022-11-21T11:17:50;8.38;;;1.63;;
549;SDS011;20066;48.764;9.176;2022-11-21T11:20:29;4.72;;;1.20;;
549;SDS011;20066;48.764;9.176;2022-11-21T11:22:59;6.80;;;1.52;;
549;SDS011;20066;48.764;9.176;2022-11-21T11:25:44;5.60;;;1.50;;
549;SDS011;20066;48.764;9.176;2022-11-21T11:28:13;5.90;;;1.40;;
549;SDS011;20066;48.764;9.176;2022-11-21T11:30:42;4.50;;;1.20;;
549;SDS011;20066;48.764;9.176;2022-11-21T11:36:18;7.78;;;2.50;;
549;SDS011;20066;48.764;9.176;2022-11-21T11:38:57;8.50;;;1.60;;
549;SDS011;20066;48.764;9.176;2022-11-21T11:41:34;3.28;;;1.67;;
549;SDS011;20066;48.764;9.176;2022-11-21T11:44:42;2.55;;;1.20;;
549;SDS011;20066;48.764;9.176;2022-11-21T11:47:38;6.40;;;2.20;;
549;SDS011;20066;48.764;9.176;2022-11-21T11:50:20;6.85;;;2.20;;
549;SDS011;20066;48.764;9.176;2022-11-21T11:52:52;5.40;;;1.65;;
549;SDS011;20066;48.764;9.176;2022-11-21T11:55:28;4.95;;;2.60;;
549;SDS011;20066;48.764;9.176;2022-11-21T11:58:01;4.63;;;1.70;;
549;SDS011;20066;48.764;9.176;2022-11-21T12:00:35;6.75;;;1.27;;
549;SDS011;20066;48.764;9.176;2022-11-21T12:03:10;6.88;;;1.60;;
549;SDS011;20066;48.764;9.176;2022-11-21T12:05:45;6.85;;;1.52;;
549;SDS011;20066;48.764;9.176;2022-11-21T12:08:20;8.27;;;1.63;;
549;SDS011;20066;48.764;9.176;2022-11-21T12:14:17;7.60;;;1.80;;
549;SDS011;20066;48.764;9.176;2022-11-21T12:17:14;5.40;;;1.35;;
549;SDS011;20066;48.764;9.176;2022-11-21T12:19:47;6.07;;;1.50;;
549;SDS011;20066;48.764;9.176;2022-11-21T12:22:17;7.88;;;1.75;;
549;SDS011;20066;48.764;9.176;2022-11-21T12:24:44;4.38;;;1.50;;
549;SDS011;20066;48.764;9.176;2022-11-21T12:27:22;5.68;;;1.40;;
549;SDS011;20066;48.764;9.176;2022-11-21T12:29:57;7.68;;;1.80;;
549;SDS011;20066;48.764;9.176;2022-11-21T12:32:42;3.30;;;1.90;;
549;SDS011;20066;48.764;9.176;2022-11-21T12:35:30;4.25;;;1.50;;
549;SDS011;20066;48.764;9.176;2022-11-21T12:38:14;2.30;;;1.27;;
549;SDS011;20066;48.764;9.176;2022-11-21T12:40:55;7.18;;;1.50;;
549;SDS011;20066;48.764;9.176;2022-11-21T12:43:58;3.72;;;1.10;;
549;SDS011;20066;48.764;9.176;2022-11-21T12:46:38;3.45;;;1.45;;
549;SDS011;20066;48.764;9.176;2022-11-21T12:49:19;3.92;;;1.33;;
549;SDS011;20066;48.764;9.176;2022-11-21T12:52:20;4.60;;;1.70;;
549;SDS011;20066;48.764;9.176;2022-11-21T12:55:13;2.88;;;1.38;;
549;SDS011;20066;48.764;9.176;2022-11-21T12:58:07;3.78;;;1.38;;
549;SDS011;20066;48.764;9.176;2022-11-21T13:00:44;5.70;;;1.58;;
549;SDS011;20066;48.764;9.176;2022-11-21T13:03:49;2.88;;;1.48;;
549;SDS011;20066;48.764;9.176;2022-11-21T13:06:23;11.50;;;2.33;;
549;SDS011;20066;48.764;9.176;2022-11-21T13:08:55;5.07;;;1.73;;
549;SDS011;20066;48.764;9.176;2022-11-21T13:11:32;4.60;;;1.80;;
549;SDS011;20066;48.764;9.176;2022-11-21T13:14:25;3.20;;;1.65;;
549;SDS011;20066;48.764;9.176;2022-11-21T13:17:09;6.53;;;1.48;;
549;SDS011;20066;48.764;9.176;2022-11-21T13:19:48;4.47;;;1.17;;
549;SDS011;20066;48.764;9.176;2022-11-21T13:30:58;3.88;;;1.20;;
549;SDS011;20066;48.764;9.176;2022-11-21T13:33:44;9.70;;;1.48;;
549;SDS011;20066;48.764;9.176;2022-11-21T13:39:23;8.88;;;1.38;;
549;SDS011;20066;48.764;9.176;2022-11-21T13:42:04;12.35;;;2.83;;
549;SDS011;20066;48.764;9.176;2022-11-21T13:44:52;7.55;;;2.50;;
549;SDS011;20066;48.764;9.176;2022-11-21T13:50:45;9.15;;;1.50;;
549;SDS011;20066;48.764;9.176;2022-11-21T13:53:30;5.45;;;1.30;;
549;SDS011;20066;48.764;9.176;2022-11-21T13:56:09;2.65;;;1.17;;
549;SDS011;20066;48.764;9.176;2022-11-21T13:58:55;3.40;;;1.65;;
549;SDS011;20066;48.764;9.176;2022-11-21T14:01:47;4.35;;;1.95;;
549;SDS011;20066;48.764;9.176;2022-11-21T14:07:22;6.78;;;2.15;;
549;SDS011;20066;48.764;9.176;2022-11-21T14:09:53;5.15;;;1.92;;
549;SDS011;20066;48.764;9.176;2022-11-21T14:12:24;5.97;;;2.35;;
549;SDS011;20066;48.764;9.176;2022-11-21T14:15:10;6.82;;;2.50;;
549;SDS011;20066;48.764;9.176;2022-11-21T14:17:51;4.38;;;2.17;;
549;SDS011;20066;48.764;9.176;2022-11-21T14:20:22;6.68;;;3.00;;
549;SDS011;20066;48.764;9.176;2022-11-21T14:22:53;12.23;;;2.75;;
549;SDS011;20066;48.764;9.176;2022-11-21T14:25:25;14.70;;;3.78;;
549;SDS011;20066;48.764;9.176;2022-11-21T14:27:59;21.23;;;3.60;;
549;SDS011;20066;48.764;9.176;2022-11-21T14:30:33;8.15;;;2.00;;
549;SDS011;20066;48.764;9.176;2022-11-21T14:33:25;5.95;;;2.47;;
549;SDS011;20066;48.764;9.176;2022-11-21T14:35:56;9.50;;;2.70;;
549;SDS011;20066;48.764;9.176;2022-11-21T14:38:27;12.25;;;3.90;;
549;SDS011;20066;48.764;9.176;2022-11-21T14:44:13;11.68;;;3.97;;
549;SDS011;20066;48.764;9.176;2022-11-21T14:46:44;8.10;;;2.13;;
549;SDS011;20066;48.764;9.176;2022-11-21T14:49:23;10.88;;;3.10;;
549;SDS011;20066;48.764;9.176;2022-11-21T14:51:59;5.95;;;2.17;;
549;SDS011;20066;48.764;9.176;2022-11-21T14:54:31;9.38;;;2.10;;
549;SDS011;20066;48.764;9.176;2022-11-21T14:57:05;5.78;;;2.65;;
549;SDS011;20066;48.764;9.176;2022-11-21T14:59:36;15.05;;;3.72;;
549;SDS011;20066;48.764;9.176;2022-11-21T15:02:10;13.55;;;3.65;;
549;SDS011;20066;48.764;9.176;2022-11-21T15:04:40;13.35;;;3.67;;
549;SDS011;20066;48.764;9.176;2022-11-21T15:07:14;14.30;;;3.03;;
549;SDS011;20066;48.764;9.176;2022-11-21T15:09:44;15.05;;;3.15;;
549;SDS011;20066;48.764;9.176;2022-11-21T15:12:33;16.33;;;3.80;;
549;SDS011;20066;48.764;9.176;2022-11-21T15:15:18;35.38;;;7.68;;
549;SDS011;20066;48.764;9.176;2022-11-21T15:17:54;14.40;;;4.13;;
549;SDS011;20066;48.764;9.176;2022-11-21T15:20:44;13.32;;;3.72;;
549;SDS011;20066;48.764;9.176;2022-11-21T15:23:23;10.70;;;3.70;;
549;SDS011;20066;48.764;9.176;2022-11-21T15:25:52;9.43;;;3.20;;
549;SDS011;20066;48.764;9.176;2022-11-21T15:28:26;14.15;;;3.92;;
549;SDS011;20066;48.764;9.176;2022-11-21T15:31:13;9.70;;;4.45;;
549;SDS011;20066;48.764;9.176;2022-11-21T15:33:53;15.35;;;3.95;;
549;SDS011;20066;48.764;9.176;2022-11-21T15:36:42;7.90;;;3.50;;
549;SDS011;20066;48.764;9.176;2022-11-21T15:39:10;7.90;;;3.35;;
549;SDS011;20066;48.764;9.176;2022-11-21T15:41:42;13.07;;;3.42;;
549;SDS011;20066;48.764;9.176;2022-11-21T15:44:20;10.27;;;2.72;;
549;SDS011;20066;48.764;9.176;2022-11-21T15:49:33;13.13;;;3.95;;
549;SDS011;20066;48.764;9.176;2022-11-21T15:52:01;10.32;;;3.75;;
549;SDS011;20066;48.764;9.176;2022-11-21T15:54:34;12.55;;;3.75;;
549;SDS011;20066;48.764;9.176;2022-11-21T15:57:02;9.57;;;3.85;;
549;SDS011;20066;48.764;9.176;2022-11-21T15:59:30;9.68;;;3.40;;
549;SDS011;20066;48.764;9.176;2022-11-21T16:01:58;15.65;;;3.25;;
549;SDS011;20066;48.764;9.176;2022-11-21T16:04:25;11.07;;;3.90;;
549;SDS011;20066;48.764;9.176;2022-11-21T16:06:54;14.45;;;4.25;;
549;SDS011;20066;48.764;9.176;2022-11-21T16:09:22;14.13;;;3.22;;
549;SDS011;20066;48.764;9.176;2022-11-21T16:11:50;10.50;;;3.17;;
549;SDS011;20066;48.764;9.176;2022-11-21T16:14:18;8.82;;;3.78;;
549;SDS011;20066;48.764;9.176;2022-11-21T16:16:45;7.75;;;3.40;;
549;SDS011;20066;48.764;9.176;2022-11-21T16:19:13;12.43;;;3.33;;
549;SDS011;20066;48.764;9.176;2022-11-21T16:21:41;10.32;;;4.07;;